Marriott, Utah
Current Conditions -  °F | °C
As of 1:53 PM on Friday 19 Dec 2014 (Local Time) from KOGD Reporting Station
Overcast Overcast  
Wind Chill: 38°   Ceiling: 8000
Heat Index: 44°   Visibility: 10mi
Dew Point: 26°   Wind: 13mph
Humidity: 49%   Direction: 190°S
Pressure: 30.11"   Gusts: NA
Location:  41.2701°N, 112.135°W
Report Text: KOGD 192053Z AUTO 19011KT 10SM FEW060 BKN080 OVC095 07/M03 A3011 RMK AO2 SLP196 T00671033 56023 TSNO
Loading
Personal Weather Stations






























Interactive Weather Map New forecast layout! Learn more

10-Day Weather Forecast

Advertisements
Track Severe Weather on mobile